sensor_id;sensor_type;location;lat;lon;timestamp;P1;durP1;ratioP1;P2;durP2;ratioP2
66628;SDS011;53532;53.084;6.352;2022-07-23T00:01:25;12.65;;;6.78;;
66628;SDS011;53532;53.084;6.352;2022-07-23T00:03:52;12.90;;;6.38;;
66628;SDS011;53532;53.084;6.352;2022-07-23T00:06:19;14.13;;;6.50;;
66628;SDS011;53532;53.084;6.352;2022-07-23T00:08:46;15.90;;;6.97;;
66628;SDS011;53532;53.084;6.352;2022-07-23T00:11:12;13.02;;;6.70;;
66628;SDS011;53532;53.084;6.352;2022-07-23T00:13:38;13.98;;;6.80;;
66628;SDS011;53532;53.084;6.352;2022-07-23T00:16:06;12.73;;;7.13;;
66628;SDS011;53532;53.084;6.352;2022-07-23T00:18:32;13.20;;;6.35;;
66628;SDS011;53532;53.084;6.352;2022-07-23T00:20:58;13.32;;;6.20;;
66628;SDS011;53532;53.084;6.352;2022-07-23T00:23:24;10.93;;;5.53;;
66628;SDS011;53532;53.084;6.352;2022-07-23T00:25:52;10.55;;;5.53;;
66628;SDS011;53532;53.084;6.352;2022-07-23T00:28:18;13.13;;;5.90;;
66628;SDS011;53532;53.084;6.352;2022-07-23T00:30:44;13.23;;;6.90;;
66628;SDS011;53532;53.084;6.352;2022-07-23T00:33:12;11.90;;;6.90;;
66628;SDS011;53532;53.084;6.352;2022-07-23T00:35:38;14.65;;;7.57;;
66628;SDS011;53532;53.084;6.352;2022-07-23T00:38:06;13.57;;;7.05;;
66628;SDS011;53532;53.084;6.352;2022-07-23T00:40:33;13.27;;;6.45;;
66628;SDS011;53532;53.084;6.352;2022-07-23T00:42:59;11.90;;;6.30;;
66628;SDS011;53532;53.084;6.352;2022-07-23T00:45:25;11.32;;;6.40;;
66628;SDS011;53532;53.084;6.352;2022-07-23T00:47:52;14.98;;;7.07;;
66628;SDS011;53532;53.084;6.352;2022-07-23T00:50:19;14.68;;;6.88;;
66628;SDS011;53532;53.084;6.352;2022-07-23T00:52:45;15.27;;;7.07;;
66628;SDS011;53532;53.084;6.352;2022-07-23T00:55:12;12.30;;;6.97;;
66628;SDS011;53532;53.084;6.352;2022-07-23T00:57:38;14.82;;;7.20;;
66628;SDS011;53532;53.084;6.352;2022-07-23T01:00:05;14.68;;;7.40;;
66628;SDS011;53532;53.084;6.352;2022-07-23T01:02:32;11.95;;;6.60;;
66628;SDS011;53532;53.084;6.352;2022-07-23T01:04:58;16.48;;;7.20;;
66628;SDS011;53532;53.084;6.352;2022-07-23T01:07:26;14.85;;;7.82;;
66628;SDS011;53532;53.084;6.352;2022-07-23T01:09:52;14.50;;;7.60;;
66628;SDS011;53532;53.084;6.352;2022-07-23T01:12:19;12.50;;;6.93;;
66628;SDS011;53532;53.084;6.352;2022-07-23T01:14:52;15.18;;;6.68;;
66628;SDS011;53532;53.084;6.352;2022-07-23T01:17:19;6.57;;;3.33;;
66628;SDS011;53532;53.084;6.352;2022-07-23T01:19:45;7.45;;;3.17;;
66628;SDS011;53532;53.084;6.352;2022-07-23T01:22:11;6.28;;;3.22;;
66628;SDS011;53532;53.084;6.352;2022-07-23T01:24:38;8.38;;;3.70;;
66628;SDS011;53532;53.084;6.352;2022-07-23T01:27:04;7.45;;;3.88;;
66628;SDS011;53532;53.084;6.352;2022-07-23T01:29:31;8.48;;;4.32;;
66628;SDS011;53532;53.084;6.352;2022-07-23T01:31:57;6.72;;;3.50;;
66628;SDS011;53532;53.084;6.352;2022-07-23T01:34:23;8.50;;;3.70;;
66628;SDS011;53532;53.084;6.352;2022-07-23T01:36:49;6.63;;;3.20;;
66628;SDS011;53532;53.084;6.352;2022-07-23T01:39:15;8.23;;;3.90;;
66628;SDS011;53532;53.084;6.352;2022-07-23T01:41:43;9.70;;;4.78;;
66628;SDS011;53532;53.084;6.352;2022-07-23T01:44:09;8.80;;;4.35;;
66628;SDS011;53532;53.084;6.352;2022-07-23T01:46:35;9.25;;;4.40;;
66628;SDS011;53532;53.084;6.352;2022-07-23T01:49:01;8.40;;;3.53;;
66628;SDS011;53532;53.084;6.352;2022-07-23T01:51:27;8.30;;;3.50;;
66628;SDS011;53532;53.084;6.352;2022-07-23T01:53:53;9.15;;;4.22;;
66628;SDS011;53532;53.084;6.352;2022-07-23T01:56:20;10.98;;;4.60;;
66628;SDS011;53532;53.084;6.352;2022-07-23T01:58:47;9.00;;;4.88;;
66628;SDS011;53532;53.084;6.352;2022-07-23T02:01:13;10.43;;;5.10;;
66628;SDS011;53532;53.084;6.352;2022-07-23T02:03:40;10.15;;;5.20;;
66628;SDS011;53532;53.084;6.352;2022-07-23T02:06:06;10.90;;;5.55;;
66628;SDS011;53532;53.084;6.352;2022-07-23T02:08:32;11.23;;;5.28;;
66628;SDS011;53532;53.084;6.352;2022-07-23T02:10:58;8.75;;;4.82;;
66628;SDS011;53532;53.084;6.352;2022-07-23T02:13:24;8.70;;;4.00;;
66628;SDS011;53532;53.084;6.352;2022-07-23T02:15:52;6.95;;;3.50;;
66628;SDS011;53532;53.084;6.352;2022-07-23T02:18:18;6.55;;;3.38;;
66628;SDS011;53532;53.084;6.352;2022-07-23T02:20:44;8.70;;;3.58;;
66628;SDS011;53532;53.084;6.352;2022-07-23T02:23:10;7.50;;;3.20;;
66628;SDS011;53532;53.084;6.352;2022-07-23T02:25:36;7.47;;;2.95;;
66628;SDS011;53532;53.084;6.352;2022-07-23T02:28:03;6.57;;;2.95;;
66628;SDS011;53532;53.084;6.352;2022-07-23T02:30:29;7.45;;;2.95;;
66628;SDS011;53532;53.084;6.352;2022-07-23T02:32:56;9.55;;;3.25;;
66628;SDS011;53532;53.084;6.352;2022-07-23T02:35:23;6.95;;;2.88;;
66628;SDS011;53532;53.084;6.352;2022-07-23T02:37:49;8.15;;;3.38;;
66628;SDS011;53532;53.084;6.352;2022-07-23T02:40:16;8.85;;;3.90;;
66628;SDS011;53532;53.084;6.352;2022-07-23T02:42:42;9.27;;;3.92;;
66628;SDS011;53532;53.084;6.352;2022-07-23T02:45:08;8.27;;;4.18;;
66628;SDS011;53532;53.084;6.352;2022-07-23T02:47:35;10.05;;;4.93;;
66628;SDS011;53532;53.084;6.352;2022-07-23T02:50:02;10.73;;;5.35;;
66628;SDS011;53532;53.084;6.352;2022-07-23T02:52:30;13.45;;;6.57;;
66628;SDS011;53532;53.084;6.352;2022-07-23T02:54:56;15.70;;;6.95;;
66628;SDS011;53532;53.084;6.352;2022-07-23T02:57:23;13.70;;;6.75;;
66628;SDS011;53532;53.084;6.352;2022-07-23T02:59:49;15.60;;;7.50;;
66628;SDS011;53532;53.084;6.352;2022-07-23T03:02:16;15.15;;;7.43;;
66628;SDS011;53532;53.084;6.352;2022-07-23T03:04:42;16.83;;;7.57;;
66628;SDS011;53532;53.084;6.352;2022-07-23T03:07:09;11.93;;;5.65;;
66628;SDS011;53532;53.084;6.352;2022-07-23T03:09:35;14.95;;;6.65;;
66628;SDS011;53532;53.084;6.352;2022-07-23T03:12:02;14.57;;;6.60;;
66628;SDS011;53532;53.084;6.352;2022-07-23T03:14:28;12.65;;;6.90;;
66628;SDS011;53532;53.084;6.352;2022-07-23T03:16:54;12.70;;;6.03;;
66628;SDS011;53532;53.084;6.352;2022-07-23T03:19:20;12.05;;;6.47;;
66628;SDS011;53532;53.084;6.352;2022-07-23T03:21:46;12.60;;;6.40;;
66628;SDS011;53532;53.084;6.352;2022-07-23T03:24:14;11.95;;;5.55;;
66628;SDS011;53532;53.084;6.352;2022-07-23T03:26:42;9.13;;;4.38;;
66628;SDS011;53532;53.084;6.352;2022-07-23T03:29:09;8.00;;;4.10;;
66628;SDS011;53532;53.084;6.352;2022-07-23T03:31:35;10.68;;;4.40;;
66628;SDS011;53532;53.084;6.352;2022-07-23T03:34:01;9.82;;;4.80;;
66628;SDS011;53532;53.084;6.352;2022-07-23T03:36:27;10.57;;;4.97;;
66628;SDS011;53532;53.084;6.352;2022-07-23T03:38:54;9.95;;;4.85;;
66628;SDS011;53532;53.084;6.352;2022-07-23T03:41:21;10.23;;;5.18;;
66628;SDS011;53532;53.084;6.352;2022-07-23T03:43:48;11.82;;;5.80;;
66628;SDS011;53532;53.084;6.352;2022-07-23T03:46:14;10.50;;;5.32;;
66628;SDS011;53532;53.084;6.352;2022-07-23T03:48:40;8.95;;;4.70;;
66628;SDS011;53532;53.084;6.352;2022-07-23T03:51:06;8.40;;;4.18;;
66628;SDS011;53532;53.084;6.352;2022-07-23T03:53:32;10.68;;;4.30;;
66628;SDS011;53532;53.084;6.352;2022-07-23T03:55:59;8.65;;;3.80;;
66628;SDS011;53532;53.084;6.352;2022-07-23T03:58:26;7.70;;;3.78;;
66628;SDS011;53532;53.084;6.352;2022-07-23T04:00:52;9.18;;;4.40;;
66628;SDS011;53532;53.084;6.352;2022-07-23T04:03:18;11.15;;;4.72;;
66628;SDS011;53532;53.084;6.352;2022-07-23T04:05:45;9.57;;;4.78;;
66628;SDS011;53532;53.084;6.352;2022-07-23T04:08:11;9.50;;;4.45;;
66628;SDS011;53532;53.084;6.352;2022-07-23T04:10:37;10.88;;;5.60;;
66628;SDS011;53532;53.084;6.352;2022-07-23T04:13:03;10.55;;;4.88;;
66628;SDS011;53532;53.084;6.352;2022-07-23T04:15:31;10.55;;;5.03;;
66628;SDS011;53532;53.084;6.352;2022-07-23T04:17:57;11.90;;;5.13;;
66628;SDS011;53532;53.084;6.352;2022-07-23T04:20:23;11.02;;;5.55;;
66628;SDS011;53532;53.084;6.352;2022-07-23T04:22:49;12.77;;;6.28;;
66628;SDS011;53532;53.084;6.352;2022-07-23T04:25:15;15.13;;;6.55;;
66628;SDS011;53532;53.084;6.352;2022-07-23T04:27:42;12.32;;;6.53;;
66628;SDS011;53532;53.084;6.352;2022-07-23T04:30:08;15.07;;;7.03;;
66628;SDS011;53532;53.084;6.352;2022-07-23T04:32:36;12.38;;;6.30;;
66628;SDS011;53532;53.084;6.352;2022-07-23T04:35:02;13.48;;;7.18;;
66628;SDS011;53532;53.084;6.352;2022-07-23T04:37:28;12.30;;;6.38;;
66628;SDS011;53532;53.084;6.352;2022-07-23T04:39:55;14.57;;;6.82;;
66628;SDS011;53532;53.084;6.352;2022-07-23T04:42:21;14.15;;;6.93;;
66628;SDS011;53532;53.084;6.352;2022-07-23T04:44:47;16.00;;;7.38;;
66628;SDS011;53532;53.084;6.352;2022-07-23T04:47:13;14.70;;;7.43;;
66628;SDS011;53532;53.084;6.352;2022-07-23T04:49:41;14.30;;;7.50;;
66628;SDS011;53532;53.084;6.352;2022-07-23T04:52:07;14.30;;;7.13;;
66628;SDS011;53532;53.084;6.352;2022-07-23T04:54:33;13.43;;;6.85;;
66628;SDS011;53532;53.084;6.352;2022-07-23T04:56:59;14.90;;;7.35;;
66628;SDS011;53532;53.084;6.352;2022-07-23T04:59:25;14.00;;;7.00;;
66628;SDS011;53532;53.084;6.352;2022-07-23T05:01:51;15.38;;;7.55;;
66628;SDS011;53532;53.084;6.352;2022-07-23T05:04:17;12.30;;;7.00;;
66628;SDS011;53532;53.084;6.352;2022-07-23T05:06:45;15.57;;;7.72;;
66628;SDS011;53532;53.084;6.352;2022-07-23T05:09:11;14.98;;;6.95;;
66628;SDS011;53532;53.084;6.352;2022-07-23T05:11:37;15.73;;;7.50;;
66628;SDS011;53532;53.084;6.352;2022-07-23T05:14:03;12.30;;;7.10;;
66628;SDS011;53532;53.084;6.352;2022-07-23T05:16:30;13.43;;;7.13;;
66628;SDS011;53532;53.084;6.352;2022-07-23T05:18:56;11.18;;;6.63;;
66628;SDS011;53532;53.084;6.352;2022-07-23T05:21:22;13.52;;;6.40;;
66628;SDS011;53532;53.084;6.352;2022-07-23T05:23:49;11.88;;;6.15;;
66628;SDS011;53532;53.084;6.352;2022-07-23T05:26:15;11.63;;;6.00;;
66628;SDS011;53532;53.084;6.352;2022-07-23T05:28:42;14.52;;;6.60;;
66628;SDS011;53532;53.084;6.352;2022-07-23T05:31:08;12.18;;;6.35;;
66628;SDS011;53532;53.084;6.352;2022-07-23T05:33:34;11.35;;;6.20;;
66628;SDS011;53532;53.084;6.352;2022-07-23T05:36:00;11.95;;;6.60;;
66628;SDS011;53532;53.084;6.352;2022-07-23T05:38:27;13.32;;;6.00;;
66628;SDS011;53532;53.084;6.352;2022-07-23T05:40:55;12.13;;;6.03;;
66628;SDS011;53532;53.084;6.352;2022-07-23T05:43:21;12.43;;;6.47;;
66628;SDS011;53532;53.084;6.352;2022-07-23T05:45:47;13.88;;;6.85;;
66628;SDS011;53532;53.084;6.352;2022-07-23T05:48:13;13.98;;;6.60;;
66628;SDS011;53532;53.084;6.352;2022-07-23T05:50:40;14.10;;;7.22;;
66628;SDS011;53532;53.084;6.352;2022-07-23T05:53:06;13.68;;;7.03;;
66628;SDS011;53532;53.084;6.352;2022-07-23T05:55:32;14.30;;;6.43;;
66628;SDS011;53532;53.084;6.352;2022-07-23T05:57:59;21.83;;;6.70;;
66628;SDS011;53532;53.084;6.352;2022-07-23T06:00:26;13.48;;;5.68;;
66628;SDS011;53532;53.084;6.352;2022-07-23T06:02:52;10.85;;;5.80;;
66628;SDS011;53532;53.084;6.352;2022-07-23T06:05:19;12.35;;;5.50;;
66628;SDS011;53532;53.084;6.352;2022-07-23T06:07:45;11.73;;;6.10;;
66628;SDS011;53532;53.084;6.352;2022-07-23T06:10:11;13.75;;;6.00;;
66628;SDS011;53532;53.084;6.352;2022-07-23T06:12:37;11.10;;;5.65;;
66628;SDS011;53532;53.084;6.352;2022-07-23T06:15:06;12.07;;;5.43;;
66628;SDS011;53532;53.084;6.352;2022-07-23T06:17:32;11.40;;;5.07;;
66628;SDS011;53532;53.084;6.352;2022-07-23T06:19:58;11.23;;;5.10;;
66628;SDS011;53532;53.084;6.352;2022-07-23T06:22:24;8.60;;;4.85;;
66628;SDS011;53532;53.084;6.352;2022-07-23T06:24:51;10.32;;;4.43;;
66628;SDS011;53532;53.084;6.352;2022-07-23T06:27:17;10.07;;;4.30;;
66628;SDS011;53532;53.084;6.352;2022-07-23T06:29:43;8.82;;;4.20;;
66628;SDS011;53532;53.084;6.352;2022-07-23T06:32:11;8.77;;;4.25;;
66628;SDS011;53532;53.084;6.352;2022-07-23T06:34:37;9.43;;;3.70;;
66628;SDS011;53532;53.084;6.352;2022-07-23T06:37:03;8.93;;;3.80;;
66628;SDS011;53532;53.084;6.352;2022-07-23T06:39:30;8.18;;;3.45;;
66628;SDS011;53532;53.084;6.352;2022-07-23T06:41:56;6.75;;;3.50;;
66628;SDS011;53532;53.084;6.352;2022-07-23T06:44:22;9.55;;;3.63;;
66628;SDS011;53532;53.084;6.352;2022-07-23T06:46:48;6.57;;;3.50;;
66628;SDS011;53532;53.084;6.352;2022-07-23T06:49:16;6.72;;;3.63;;
66628;SDS011;53532;53.084;6.352;2022-07-23T06:51:42;6.97;;;3.50;;
66628;SDS011;53532;53.084;6.352;2022-07-23T06:54:08;7.03;;;3.38;;
66628;SDS011;53532;53.084;6.352;2022-07-23T06:56:35;7.85;;;3.55;;
66628;SDS011;53532;53.084;6.352;2022-07-23T06:59:01;7.88;;;3.28;;
66628;SDS011;53532;53.084;6.352;2022-07-23T07:01:27;6.65;;;2.78;;
66628;SDS011;53532;53.084;6.352;2022-07-23T07:03:53;5.20;;;2.83;;
66628;SDS011;53532;53.084;6.352;2022-07-23T07:06:21;6.00;;;2.63;;
66628;SDS011;53532;53.084;6.352;2022-07-23T07:08:47;6.57;;;2.80;;
66628;SDS011;53532;53.084;6.352;2022-07-23T07:11:13;8.93;;;2.53;;
66628;SDS011;53532;53.084;6.352;2022-07-23T07:13:39;6.93;;;2.45;;
66628;SDS011;53532;53.084;6.352;2022-07-23T07:16:06;4.68;;;2.15;;
66628;SDS011;53532;53.084;6.352;2022-07-23T07:18:32;3.63;;;1.92;;
66628;SDS011;53532;53.084;6.352;2022-07-23T07:20:58;6.60;;;2.20;;
66628;SDS011;53532;53.084;6.352;2022-07-23T07:23:25;3.97;;;2.00;;
66628;SDS011;53532;53.084;6.352;2022-07-23T07:25:52;6.45;;;2.50;;
66628;SDS011;53532;53.084;6.352;2022-07-23T07:28:18;6.05;;;2.10;;
66628;SDS011;53532;53.084;6.352;2022-07-23T07:30:44;6.13;;;1.92;;
66628;SDS011;53532;53.084;6.352;2022-07-23T07:33:10;3.15;;;1.60;;
66628;SDS011;53532;53.084;6.352;2022-07-23T07:35:36;5.93;;;2.17;;
66628;SDS011;53532;53.084;6.352;2022-07-23T07:38:02;3.17;;;1.60;;
66628;SDS011;53532;53.084;6.352;2022-07-23T07:40:30;5.72;;;1.80;;
66628;SDS011;53532;53.084;6.352;2022-07-23T07:42:56;3.28;;;1.45;;
66628;SDS011;53532;53.084;6.352;2022-07-23T07:45:23;4.63;;;1.80;;
66628;SDS011;53532;53.084;6.352;2022-07-23T07:47:50;4.28;;;1.83;;
66628;SDS011;53532;53.084;6.352;2022-07-23T07:50:17;4.50;;;1.83;;
66628;SDS011;53532;53.084;6.352;2022-07-23T07:52:44;3.88;;;1.35;;
66628;SDS011;53532;53.084;6.352;2022-07-23T07:55:10;3.20;;;1.33;;
66628;SDS011;53532;53.084;6.352;2022-07-23T07:57:38;3.45;;;1.52;;
66628;SDS011;53532;53.084;6.352;2022-07-23T08:00:05;3.75;;;1.42;;
66628;SDS011;53532;53.084;6.352;2022-07-23T08:02:39;3.85;;;1.30;;
66628;SDS011;53532;53.084;6.352;2022-07-23T08:05:05;2.35;;;1.20;;
66628;SDS011;53532;53.084;6.352;2022-07-23T08:07:31;4.82;;;1.27;;
66628;SDS011;53532;53.084;6.352;2022-07-23T08:09:57;2.72;;;1.20;;
66628;SDS011;53532;53.084;6.352;2022-07-23T08:12:24;3.28;;;1.30;;
66628;SDS011;53532;53.084;6.352;2022-07-23T08:14:51;1.85;;;1.20;;
66628;SDS011;53532;53.084;6.352;2022-07-23T08:17:18;3.20;;;1.23;;
66628;SDS011;53532;53.084;6.352;2022-07-23T08:19:44;3.63;;;1.40;;
66628;SDS011;53532;53.084;6.352;2022-07-23T08:22:10;3.78;;;1.38;;
66628;SDS011;53532;53.084;6.352;2022-07-23T08:24:36;3.65;;;1.20;;
66628;SDS011;53532;53.084;6.352;2022-07-23T08:27:02;4.80;;;1.35;;
66628;SDS011;53532;53.084;6.352;2022-07-23T08:29:28;2.33;;;1.30;;
66628;SDS011;53532;53.084;6.352;2022-07-23T08:31:56;2.65;;;1.20;;
66628;SDS011;53532;53.084;6.352;2022-07-23T08:34:22;4.55;;;1.48;;
66628;SDS011;53532;53.084;6.352;2022-07-23T08:36:48;3.72;;;1.30;;
66628;SDS011;53532;53.084;6.352;2022-07-23T08:39:15;4.93;;;1.30;;
66628;SDS011;53532;53.084;6.352;2022-07-23T08:41:41;2.53;;;1.20;;
66628;SDS011;53532;53.084;6.352;2022-07-23T08:44:07;2.58;;;1.40;;
66628;SDS011;53532;53.084;6.352;2022-07-23T08:46:34;4.10;;;1.50;;
66628;SDS011;53532;53.084;6.352;2022-07-23T08:49:02;3.03;;;1.20;;
66628;SDS011;53532;53.084;6.352;2022-07-23T08:51:29;4.80;;;1.23;;
66628;SDS011;53532;53.084;6.352;2022-07-23T08:53:56;4.50;;;1.42;;
66628;SDS011;53532;53.084;6.352;2022-07-23T08:56:22;5.97;;;1.67;;
66628;SDS011;53532;53.084;6.352;2022-07-23T08:58:48;3.50;;;1.40;;
66628;SDS011;53532;53.084;6.352;2022-07-23T09:01:15;2.70;;;1.27;;
66628;SDS011;53532;53.084;6.352;2022-07-23T09:03:41;3.63;;;1.40;;
66628;SDS011;53532;53.084;6.352;2022-07-23T09:06:11;2.38;;;1.27;;
66628;SDS011;53532;53.084;6.352;2022-07-23T09:08:38;2.80;;;1.38;;
66628;SDS011;53532;53.084;6.352;2022-07-23T09:11:04;3.08;;;1.33;;
66628;SDS011;53532;53.084;6.352;2022-07-23T09:13:33;3.83;;;1.33;;
66628;SDS011;53532;53.084;6.352;2022-07-23T09:16:00;3.03;;;1.20;;
66628;SDS011;53532;53.084;6.352;2022-07-23T09:18:34;3.53;;;1.40;;
66628;SDS011;53532;53.084;6.352;2022-07-23T09:21:06;5.70;;;1.50;;
66628;SDS011;53532;53.084;6.352;2022-07-23T09:23:38;4.00;;;1.50;;
66628;SDS011;53532;53.084;6.352;2022-07-23T09:26:10;3.85;;;1.52;;
66628;SDS011;53532;53.084;6.352;2022-07-23T09:28:47;2.85;;;1.40;;
66628;SDS011;53532;53.084;6.352;2022-07-23T09:31:16;4.18;;;1.50;;
66628;SDS011;53532;53.084;6.352;2022-07-23T09:33:42;3.53;;;1.40;;
66628;SDS011;53532;53.084;6.352;2022-07-23T09:36:08;2.80;;;1.38;;
66628;SDS011;53532;53.084;6.352;2022-07-23T09:38:34;3.53;;;1.75;;
66628;SDS011;53532;53.084;6.352;2022-07-23T09:41:07;5.00;;;1.70;;
66628;SDS011;53532;53.084;6.352;2022-07-23T09:43:33;2.38;;;1.38;;
66628;SDS011;53532;53.084;6.352;2022-07-23T09:48:40;4.53;;;1.60;;
66628;SDS011;53532;53.084;6.352;2022-07-23T09:51:07;2.92;;;1.83;;
66628;SDS011;53532;53.084;6.352;2022-07-23T09:53:33;5.03;;;1.48;;
66628;SDS011;53532;53.084;6.352;2022-07-23T09:55:59;4.38;;;2.00;;
66628;SDS011;53532;53.084;6.352;2022-07-23T09:58:28;3.05;;;1.83;;
66628;SDS011;53532;53.084;6.352;2022-07-23T10:00:54;5.07;;;1.60;;
66628;SDS011;53532;53.084;6.352;2022-07-23T10:03:21;4.18;;;1.83;;
66628;SDS011;53532;53.084;6.352;2022-07-23T10:05:49;4.78;;;1.70;;
66628;SDS011;53532;53.084;6.352;2022-07-23T10:08:16;5.88;;;1.90;;
66628;SDS011;53532;53.084;6.352;2022-07-23T10:10:42;4.10;;;1.60;;
66628;SDS011;53532;53.084;6.352;2022-07-23T10:13:09;3.38;;;1.40;;
66628;SDS011;53532;53.084;6.352;2022-07-23T10:16:00;5.53;;;1.83;;
66628;SDS011;53532;53.084;6.352;2022-07-23T10:18:26;2.78;;;1.40;;
66628;SDS011;53532;53.084;6.352;2022-07-23T10:20:53;4.40;;;1.50;;
66628;SDS011;53532;53.084;6.352;2022-07-23T10:23:22;5.57;;;1.50;;
66628;SDS011;53532;53.084;6.352;2022-07-23T10:25:51;5.57;;;1.55;;
66628;SDS011;53532;53.084;6.352;2022-07-23T10:28:38;3.00;;;1.30;;
66628;SDS011;53532;53.084;6.352;2022-07-23T10:31:09;4.30;;;1.70;;
66628;SDS011;53532;53.084;6.352;2022-07-23T10:33:41;3.78;;;1.60;;
66628;SDS011;53532;53.084;6.352;2022-07-23T10:38:41;5.45;;;1.58;;
66628;SDS011;53532;53.084;6.352;2022-07-23T10:41:09;6.87;;;1.80;;
66628;SDS011;53532;53.084;6.352;2022-07-23T10:43:35;5.15;;;1.70;;
66628;SDS011;53532;53.084;6.352;2022-07-23T10:46:21;3.75;;;1.38;;
66628;SDS011;53532;53.084;6.352;2022-07-23T10:49:25;4.32;;;1.70;;
66628;SDS011;53532;53.084;6.352;2022-07-23T10:54:36;2.28;;;1.40;;
66628;SDS011;53532;53.084;6.352;2022-07-23T10:57:06;5.65;;;2.00;;
66628;SDS011;53532;53.084;6.352;2022-07-23T11:02:21;3.88;;;1.88;;
66628;SDS011;53532;53.084;6.352;2022-07-23T11:04:48;6.43;;;1.88;;
66628;SDS011;53532;53.084;6.352;2022-07-23T11:07:15;3.55;;;2.20;;
66628;SDS011;53532;53.084;6.352;2022-07-23T11:09:41;5.47;;;1.92;;
66628;SDS011;53532;53.084;6.352;2022-07-23T11:14:59;5.00;;;2.33;;
66628;SDS011;53532;53.084;6.352;2022-07-23T11:17:29;5.10;;;2.35;;
66628;SDS011;53532;53.084;6.352;2022-07-23T11:20:17;3.33;;;2.00;;
66628;SDS011;53532;53.084;6.352;2022-07-23T11:22:48;4.80;;;1.88;;
66628;SDS011;53532;53.084;6.352;2022-07-23T11:25:28;6.60;;;2.30;;
66628;SDS011;53532;53.084;6.352;2022-07-23T11:27:54;5.88;;;2.13;;
66628;SDS011;53532;53.084;6.352;2022-07-23T11:33:16;6.78;;;2.40;;
66628;SDS011;53532;53.084;6.352;2022-07-23T11:35:44;7.50;;;2.55;;
66628;SDS011;53532;53.084;6.352;2022-07-23T11:38:12;6.55;;;2.42;;
66628;SDS011;53532;53.084;6.352;2022-07-23T11:40:39;5.30;;;2.50;;
66628;SDS011;53532;53.084;6.352;2022-07-23T11:43:06;8.05;;;2.15;;
66628;SDS011;53532;53.084;6.352;2022-07-23T11:45:35;5.13;;;2.50;;
66628;SDS011;53532;53.084;6.352;2022-07-23T11:48:02;4.80;;;2.20;;
66628;SDS011;53532;53.084;6.352;2022-07-23T11:50:30;4.60;;;2.13;;
66628;SDS011;53532;53.084;6.352;2022-07-23T11:52:56;4.75;;;2.10;;
66628;SDS011;53532;53.084;6.352;2022-07-23T11:55:22;4.47;;;2.40;;
66628;SDS011;53532;53.084;6.352;2022-07-23T11:57:50;7.07;;;2.20;;
66628;SDS011;53532;53.084;6.352;2022-07-23T12:00:17;4.97;;;1.90;;
66628;SDS011;53532;53.084;6.352;2022-07-23T12:02:44;6.90;;;2.42;;
66628;SDS011;53532;53.084;6.352;2022-07-23T12:05:11;5.05;;;2.10;;
66628;SDS011;53532;53.084;6.352;2022-07-23T12:07:39;5.93;;;2.40;;
66628;SDS011;53532;53.084;6.352;2022-07-23T12:10:09;4.95;;;2.20;;
66628;SDS011;53532;53.084;6.352;2022-07-23T12:12:37;6.65;;;2.67;;
66628;SDS011;53532;53.084;6.352;2022-07-23T12:15:03;4.95;;;2.30;;
66628;SDS011;53532;53.084;6.352;2022-07-23T12:17:31;5.78;;;2.38;;
66628;SDS011;53532;53.084;6.352;2022-07-23T12:19:58;4.78;;;2.42;;
66628;SDS011;53532;53.084;6.352;2022-07-23T12:22:25;5.75;;;2.50;;
66628;SDS011;53532;53.084;6.352;2022-07-23T12:24:57;5.10;;;2.20;;
66628;SDS011;53532;53.084;6.352;2022-07-23T12:27:23;5.80;;;2.42;;
66628;SDS011;53532;53.084;6.352;2022-07-23T12:29:50;6.97;;;2.47;;
66628;SDS011;53532;53.084;6.352;2022-07-23T12:32:17;4.22;;;2.22;;
66628;SDS011;53532;53.084;6.352;2022-07-23T12:34:43;5.82;;;2.20;;
66628;SDS011;53532;53.084;6.352;2022-07-23T12:37:24;7.13;;;2.20;;
66628;SDS011;53532;53.084;6.352;2022-07-23T12:39:50;6.20;;;2.40;;
66628;SDS011;53532;53.084;6.352;2022-07-23T12:42:17;5.45;;;2.60;;
66628;SDS011;53532;53.084;6.352;2022-07-23T12:47:25;5.15;;;2.50;;
66628;SDS011;53532;53.084;6.352;2022-07-23T12:49:51;4.00;;;1.80;;
66628;SDS011;53532;53.084;6.352;2022-07-23T12:52:17;6.00;;;2.55;;
66628;SDS011;53532;53.084;6.352;2022-07-23T12:54:44;4.35;;;2.30;;
66628;SDS011;53532;53.084;6.352;2022-07-23T12:57:10;4.25;;;2.25;;
66628;SDS011;53532;53.084;6.352;2022-07-23T12:59:37;4.15;;;2.00;;
66628;SDS011;53532;53.084;6.352;2022-07-23T13:02:03;3.83;;;2.00;;
66628;SDS011;53532;53.084;6.352;2022-07-23T13:04:30;4.57;;;2.20;;
66628;SDS011;53532;53.084;6.352;2022-07-23T13:06:59;3.88;;;2.00;;
66628;SDS011;53532;53.084;6.352;2022-07-23T13:09:28;5.97;;;2.17;;
66628;SDS011;53532;53.084;6.352;2022-07-23T13:11:55;3.33;;;1.95;;
66628;SDS011;53532;53.084;6.352;2022-07-23T13:14:22;2.40;;;1.75;;
66628;SDS011;53532;53.084;6.352;2022-07-23T13:16:50;3.85;;;1.80;;
66628;SDS011;53532;53.084;6.352;2022-07-23T13:19:17;4.25;;;1.75;;
66628;SDS011;53532;53.084;6.352;2022-07-23T13:21:43;4.40;;;1.98;;
66628;SDS011;53532;53.084;6.352;2022-07-23T13:24:09;5.30;;;2.00;;
66628;SDS011;53532;53.084;6.352;2022-07-23T13:26:37;5.80;;;2.03;;
66628;SDS011;53532;53.084;6.352;2022-07-23T13:29:04;3.88;;;2.03;;
66628;SDS011;53532;53.084;6.352;2022-07-23T13:31:30;5.65;;;1.70;;
66628;SDS011;53532;53.084;6.352;2022-07-23T13:33:57;4.15;;;2.15;;
66628;SDS011;53532;53.084;6.352;2022-07-23T13:36:24;5.70;;;2.10;;
66628;SDS011;53532;53.084;6.352;2022-07-23T13:38:50;2.92;;;1.83;;
66628;SDS011;53532;53.084;6.352;2022-07-23T13:41:16;4.82;;;2.00;;
66628;SDS011;53532;53.084;6.352;2022-07-23T13:43:42;4.20;;;1.75;;
66628;SDS011;53532;53.084;6.352;2022-07-23T13:46:09;3.85;;;2.08;;
66628;SDS011;53532;53.084;6.352;2022-07-23T13:48:35;5.35;;;2.03;;
66628;SDS011;53532;53.084;6.352;2022-07-23T13:51:03;4.95;;;2.17;;
66628;SDS011;53532;53.084;6.352;2022-07-23T13:53:29;3.88;;;2.05;;
66628;SDS011;53532;53.084;6.352;2022-07-23T13:55:55;3.53;;;1.70;;
66628;SDS011;53532;53.084;6.352;2022-07-23T13:58:22;3.03;;;1.80;;
66628;SDS011;53532;53.084;6.352;2022-07-23T14:00:50;3.45;;;1.50;;
66628;SDS011;53532;53.084;6.352;2022-07-23T14:03:16;4.82;;;1.80;;
66628;SDS011;53532;53.084;6.352;2022-07-23T14:05:43;4.43;;;2.30;;
66628;SDS011;53532;53.084;6.352;2022-07-23T14:08:10;3.40;;;1.77;;
66628;SDS011;53532;53.084;6.352;2022-07-23T14:10:37;2.80;;;1.60;;
66628;SDS011;53532;53.084;6.352;2022-07-23T14:13:03;4.03;;;1.67;;
66628;SDS011;53532;53.084;6.352;2022-07-23T14:15:30;4.20;;;1.80;;
66628;SDS011;53532;53.084;6.352;2022-07-23T14:17:56;5.20;;;2.20;;
66628;SDS011;53532;53.084;6.352;2022-07-23T14:20:23;5.22;;;1.88;;
66628;SDS011;53532;53.084;6.352;2022-07-23T14:22:49;4.78;;;1.67;;
66628;SDS011;53532;53.084;6.352;2022-07-23T14:25:17;5.10;;;1.83;;
66628;SDS011;53532;53.084;6.352;2022-07-23T14:27:43;3.58;;;1.63;;
66628;SDS011;53532;53.084;6.352;2022-07-23T14:30:10;4.15;;;2.10;;
66628;SDS011;53532;53.084;6.352;2022-07-23T14:32:36;4.00;;;1.77;;
66628;SDS011;53532;53.084;6.352;2022-07-23T14:35:03;3.22;;;1.65;;
66628;SDS011;53532;53.084;6.352;2022-07-23T14:37:29;4.13;;;1.70;;
66628;SDS011;53532;53.084;6.352;2022-07-23T14:39:55;2.08;;;1.60;;
66628;SDS011;53532;53.084;6.352;2022-07-23T14:42:23;4.53;;;1.63;;
66628;SDS011;53532;53.084;6.352;2022-07-23T14:44:50;4.65;;;1.80;;
66628;SDS011;53532;53.084;6.352;2022-07-23T14:47:16;4.75;;;1.88;;
66628;SDS011;53532;53.084;6.352;2022-07-23T14:49:42;5.38;;;1.70;;
66628;SDS011;53532;53.084;6.352;2022-07-23T14:52:08;3.53;;;1.83;;
66628;SDS011;53532;53.084;6.352;2022-07-23T14:54:34;3.60;;;1.77;;
66628;SDS011;53532;53.084;6.352;2022-07-23T14:57:01;4.20;;;1.85;;
66628;SDS011;53532;53.084;6.352;2022-07-23T14:59:29;3.97;;;2.00;;
66628;SDS011;53532;53.084;6.352;2022-07-23T15:01:55;5.13;;;2.10;;